createdAt,value
2022-10-12T00:02:52.854Z,2.20
2022-10-12T00:06:03.110Z,2.22
2022-10-12T00:09:06.208Z,2.08
2022-10-12T00:12:08.738Z,2.22
2022-10-12T00:15:12.872Z,2.17
2022-10-12T00:18:15.341Z,2.47
2022-10-12T00:21:20.677Z,3.17
2022-10-12T00:24:23.174Z,2.08
2022-10-12T00:27:25.660Z,2.17
2022-10-12T00:30:29.523Z,2.17
2022-10-12T00:33:33.436Z,2.35
2022-10-12T00:36:36.570Z,2.92
2022-10-12T00:39:39.364Z,2.05
2022-10-12T00:42:41.830Z,2.83
2022-10-12T00:45:45.767Z,2.40
2022-10-12T00:48:53.610Z,2.00
2022-10-12T00:52:00.270Z,2.03
2022-10-12T00:55:03.720Z,2.05
2022-10-12T00:58:08.299Z,2.50
2022-10-12T01:01:12.358Z,2.28
2022-10-12T01:04:15.020Z,1.73
2022-10-12T01:07:17.612Z,2.60
2022-10-12T01:10:20.815Z,2.40
2022-10-12T01:13:23.315Z,2.92
2022-10-12T01:16:33.392Z,2.00
2022-10-12T01:20:10.207Z,3.08
2022-10-12T01:23:58.373Z,2.22
2022-10-12T01:27:25.161Z,2.75
2022-10-12T01:30:34.379Z,3.17
2022-10-12T01:33:39.971Z,2.35
2022-10-12T01:36:46.899Z,2.53
2022-10-12T01:39:54.206Z,1.75
2022-10-12T01:42:58.658Z,2.15
2022-10-12T01:46:24.213Z,2.33
2022-10-12T01:49:30.545Z,2.30
2022-10-12T01:52:40.392Z,1.88
2022-10-12T01:55:50.656Z,2.20
2022-10-12T01:59:02.474Z,1.98
2022-10-12T02:02:17.698Z,1.98
2022-10-12T02:05:27.496Z,2.03
2022-10-12T02:08:35.078Z,2.38
2022-10-12T02:11:42.986Z,2.70
2022-10-12T02:14:48.114Z,2.53
2022-10-12T02:17:53.566Z,2.25
2022-10-12T02:21:00.461Z,3.15
2022-10-12T02:24:07.357Z,2.25
2022-10-12T02:27:12.393Z,2.53
2022-10-12T02:30:15.005Z,2.83
2022-10-12T02:33:25.774Z,2.75
2022-10-12T02:36:35.315Z,2.60
2022-10-12T02:39:43.277Z,2.45
2022-10-12T02:43:09.955Z,2.20
2022-10-12T02:46:14.692Z,3.08
2022-10-12T02:49:19.417Z,2.70
2022-10-12T02:52:22.373Z,3.00
2022-10-12T02:55:24.822Z,2.28
2022-10-12T02:58:27.278Z,3.03
2022-10-12T03:01:29.798Z,2.92
2022-10-12T03:04:33.672Z,2.50
2022-10-12T03:07:36.495Z,2.50
2022-10-12T03:10:39.235Z,3.15
2022-10-12T03:13:41.673Z,2.75
2022-10-12T03:16:46.488Z,2.67
2022-10-12T03:19:50.250Z,3.05
2022-10-12T03:22:52.830Z,2.67
2022-10-12T03:25:55.275Z,2.78
2022-10-12T03:28:57.829Z,2.92
2022-10-12T03:32:00.325Z,3.58
2022-10-12T03:35:04.504Z,3.95
2022-10-12T03:38:07.071Z,3.92
2022-10-12T03:41:09.504Z,3.20
2022-10-12T03:44:11.955Z,3.95
2022-10-12T03:47:14.385Z,4.10
2022-10-12T03:50:18.264Z,3.45
2022-10-12T03:53:20.864Z,4.28
2022-10-12T03:56:23.293Z,2.83
2022-10-12T03:59:25.769Z,3.20
2022-10-12T04:02:28.370Z,3.60
2022-10-12T04:05:33.111Z,4.28
2022-10-12T04:08:35.652Z,3.95
2022-10-12T04:11:38.159Z,3.03
2022-10-12T04:14:40.794Z,3.25
2022-10-12T04:17:43.258Z,3.53
2022-10-12T04:20:49.950Z,2.95
2022-10-12T04:23:52.541Z,3.10
2022-10-12T04:26:54.981Z,2.70
2022-10-12T04:29:57.426Z,3.03
2022-10-12T04:33:00.212Z,2.53
2022-10-12T04:36:04.114Z,2.40
2022-10-12T04:39:06.579Z,5.60
2022-10-12T04:42:09.163Z,4.05
2022-10-12T04:45:11.897Z,3.22
2022-10-12T04:48:14.331Z,2.67
2022-10-12T04:51:18.101Z,2.72
2022-10-12T04:54:20.544Z,3.38
2022-10-12T04:57:23.021Z,3.67
2022-10-12T05:00:25.452Z,2.72
2022-10-12T05:03:27.926Z,2.35
2022-10-12T05:06:31.833Z,2.65
2022-10-12T05:09:34.320Z,3.00
2022-10-12T05:12:37.022Z,2.47
2022-10-12T05:15:39.662Z,2.60
2022-10-12T05:18:42.118Z,2.78
2022-10-12T05:21:45.881Z,2.60
2022-10-12T05:24:53.674Z,2.72
2022-10-12T05:27:57.097Z,2.70
2022-10-12T05:30:59.523Z,3.70
2022-10-12T05:34:01.961Z,2.83
2022-10-12T05:37:05.890Z,3.03
2022-10-12T05:40:09.121Z,3.08
2022-10-12T05:43:11.609Z,2.85
2022-10-12T05:46:14.669Z,3.17
2022-10-12T05:49:17.186Z,2.90
2022-10-12T05:52:21.017Z,2.17
2022-10-12T05:55:23.459Z,2.45
2022-10-12T05:58:27.003Z,2.90
2022-10-12T06:01:29.460Z,2.75
2022-10-12T06:04:31.948Z,2.72
2022-10-12T06:07:35.748Z,2.63
2022-10-12T06:10:38.899Z,2.90
2022-10-12T06:13:41.402Z,3.30
2022-10-12T06:16:43.879Z,2.83
2022-10-12T06:19:46.359Z,2.63
2022-10-12T06:22:50.125Z,2.92
2022-10-12T06:25:53.253Z,3.40
2022-10-12T06:28:55.809Z,3.20
2022-10-12T06:31:58.349Z,3.25
2022-10-12T06:35:00.772Z,2.67
2022-10-12T06:38:04.896Z,2.80
2022-10-12T06:41:07.359Z,2.97
2022-10-12T06:44:09.938Z,3.13
2022-10-12T06:47:12.351Z,2.50
2022-10-12T06:50:14.846Z,3.17
2022-10-12T06:53:19.443Z,2.95
2022-10-12T06:56:21.921Z,2.63
2022-10-12T06:59:24.865Z,2.85
2022-10-12T07:02:27.394Z,2.92
2022-10-12T07:05:30.235Z,2.70
2022-10-12T07:08:34.065Z,3.13
2022-10-12T07:11:36.560Z,2.72
2022-10-12T07:14:39.004Z,2.92
2022-10-12T07:17:41.499Z,2.90
2022-10-12T07:20:43.984Z,2.63
2022-10-12T07:23:47.742Z,2.85
2022-10-12T07:26:50.488Z,3.05
2022-10-12T07:29:52.971Z,2.75
2022-10-12T07:32:55.452Z,2.92
2022-10-12T07:36:13.200Z,3.25
2022-10-12T07:39:18.245Z,2.63
2022-10-12T07:42:20.646Z,2.20
2022-10-12T07:45:23.861Z,2.42
2022-10-12T07:48:26.312Z,3.58
2022-10-12T07:51:28.756Z,3.00
2022-10-12T07:54:32.935Z,2.33
2022-10-12T07:57:35.543Z,3.03
2022-10-12T08:00:38.037Z,2.55
2022-10-12T08:03:40.600Z,2.60
2022-10-12T08:06:44.551Z,2.70
2022-10-12T08:09:49.457Z,2.17
2022-10-12T08:12:52.343Z,3.13
2022-10-12T08:15:54.857Z,2.70
2022-10-12T08:18:57.292Z,2.42
2022-10-12T08:21:59.721Z,2.40
2022-10-12T08:25:05.414Z,2.72
2022-10-12T08:28:07.946Z,2.08
2022-10-12T08:31:12.198Z,2.22
2022-10-12T08:34:14.854Z,2.33
2022-10-12T08:37:17.281Z,2.72
2022-10-12T08:40:29.807Z,2.70
2022-10-12T08:43:45.180Z,3.05
2022-10-12T08:46:48.355Z,1.73
2022-10-12T08:49:51.907Z,2.08
2022-10-12T08:52:59.176Z,2.25
2022-10-12T08:56:02.986Z,2.17
2022-10-12T08:59:05.469Z,1.83
2022-10-12T09:02:26.370Z,2.85
2022-10-12T09:05:34.724Z,2.38
2022-10-12T09:08:51.214Z,1.88
2022-10-12T09:12:05.219Z,2.05
2022-10-12T09:15:15.680Z,2.50
2022-10-12T09:18:22.365Z,1.70
2022-10-12T09:21:27.961Z,2.50
2022-10-12T09:24:35.911Z,2.13
2022-10-12T09:27:45.091Z,2.20
2022-10-12T09:31:02.842Z,1.98
2022-10-12T09:34:07.356Z,2.30
2022-10-12T09:37:18.159Z,1.88
2022-10-12T09:40:23.973Z,2.57
2022-10-12T09:43:28.090Z,1.70
2022-10-12T09:46:40.205Z,2.20
2022-10-12T09:49:43.420Z,2.30
2022-10-12T09:52:46.489Z,2.38
2022-10-12T09:55:58.874Z,2.08
2022-10-12T09:59:05.135Z,2.05
2022-10-12T10:02:16.624Z,5.85
2022-10-12T10:05:25.971Z,2.13
2022-10-12T10:08:28.472Z,1.80
2022-10-12T10:11:31.999Z,2.25
2022-10-12T10:14:36.911Z,1.80
2022-10-12T10:17:39.923Z,1.90
2022-10-12T10:20:45.819Z,1.90
2022-10-12T10:23:52.841Z,1.70
2022-10-12T10:26:57.825Z,2.15
2022-10-12T10:30:40.573Z,2.15
2022-10-12T10:33:45.059Z,2.00
2022-10-12T10:36:49.559Z,2.00
2022-10-12T10:39:55.555Z,2.30
2022-10-12T10:43:03.728Z,1.48
2022-10-12T10:46:08.391Z,2.03
2022-10-12T10:49:26.056Z,1.83
2022-10-12T10:52:31.694Z,1.98
2022-10-12T10:55:45.847Z,1.95
2022-10-12T10:58:51.992Z,1.65
2022-10-12T11:01:58.580Z,2.10
2022-10-12T11:05:08.870Z,2.05
2022-10-12T11:08:16.854Z,1.52
2022-10-12T11:11:23.201Z,2.05
2022-10-12T11:14:32.035Z,1.60
2022-10-12T11:17:38.985Z,1.65
2022-10-12T11:20:49.636Z,2.22
2022-10-12T11:23:55.623Z,1.58
2022-10-12T11:27:04.094Z,1.73
2022-10-12T11:30:14.429Z,1.90
2022-10-12T11:33:24.145Z,1.70
2022-10-12T11:36:30.689Z,2.20
2022-10-12T11:39:39.170Z,2.03
2022-10-12T11:42:43.729Z,1.33
2022-10-12T11:45:50.466Z,1.92
2022-10-12T11:49:00.371Z,1.67
2022-10-12T11:52:06.938Z,1.52
2022-10-12T11:55:28.565Z,1.65
2022-10-12T11:58:55.971Z,1.42
2022-10-12T12:02:04.777Z,1.50
2022-10-12T12:08:24.136Z,1.63
2022-10-12T12:11:28.800Z,1.48
2022-10-12T12:14:48.887Z,1.50
2022-10-12T12:18:14.380Z,1.40
2022-10-12T12:21:18.136Z,1.60
2022-10-12T12:24:20.916Z,1.50
2022-10-12T12:27:29.749Z,1.50
2022-10-12T12:30:37.672Z,1.70
2022-10-12T12:33:43.421Z,1.30
2022-10-12T12:36:50.977Z,1.85
2022-10-12T12:39:56.150Z,2.17
2022-10-12T12:43:22.403Z,1.85
2022-10-12T12:46:47.308Z,1.38
2022-10-12T12:49:53.652Z,1.67
2022-10-12T12:53:05.489Z,1.73
2022-10-12T12:59:46.889Z,1.50
2022-10-12T13:03:20.137Z,1.20
2022-10-12T13:07:06.982Z,1.35
2022-10-12T13:10:33.114Z,1.13
2022-10-12T13:13:54.693Z,1.75
2022-10-12T13:20:38.396Z,1.83
2022-10-12T13:23:41.343Z,1.60
2022-10-12T13:26:47.701Z,1.55
2022-10-12T13:29:56.267Z,1.85
2022-10-12T13:33:04.540Z,1.23
2022-10-12T13:36:10.210Z,1.42
2022-10-12T13:39:16.430Z,1.38
2022-10-12T13:42:27.603Z,1.30
2022-10-12T13:45:30.037Z,1.15
2022-10-12T13:48:59.242Z,1.45
2022-10-12T13:51:57.637Z,1.50
2022-10-12T13:55:01.149Z,1.42
2022-10-12T13:58:05.223Z,1.33
2022-10-12T14:01:10.817Z,1.83
2022-10-12T14:04:13.339Z,1.55
2022-10-12T14:07:20.856Z,1.50
2022-10-12T14:10:27.202Z,1.42
2022-10-12T14:13:33.112Z,1.30
2022-10-12T14:16:35.587Z,1.17
2022-10-12T14:19:45.123Z,1.33
2022-10-12T14:22:49.707Z,1.40
2022-10-12T14:25:54.209Z,1.50
2022-10-12T14:29:00.285Z,1.27
2022-10-12T14:32:04.681Z,1.65
2022-10-12T14:35:26.069Z,1.35
2022-10-12T14:38:39.073Z,1.25
2022-10-12T14:41:49.953Z,1.08
2022-10-12T14:44:54.286Z,1.95
2022-10-12T14:47:57.429Z,0.98
2022-10-12T14:50:59.928Z,1.13
2022-10-12T14:54:04.173Z,1.38
2022-10-12T14:57:14.177Z,1.60
2022-10-12T15:00:20.437Z,1.75
2022-10-12T15:03:22.903Z,1.20
2022-10-12T15:06:25.424Z,1.20
2022-10-12T15:09:27.899Z,1.00
2022-10-12T15:12:32.979Z,1.50
2022-10-12T15:15:42.190Z,0.85
2022-10-12T15:18:44.634Z,1.63
2022-10-12T15:21:47.778Z,1.60
2022-10-12T15:24:52.117Z,1.42
2022-10-12T15:27:54.607Z,1.50
2022-10-12T15:34:21.528Z,1.67
2022-10-12T15:37:27.714Z,1.60
2022-10-12T15:40:32.446Z,1.42
2022-10-12T15:43:36.944Z,1.98
2022-10-12T15:46:44.628Z,1.17
2022-10-12T15:49:47.055Z,1.30
2022-10-12T15:52:50.067Z,1.42
2022-10-12T15:55:53.077Z,1.35
2022-10-12T15:58:55.577Z,1.40
2022-10-12T16:01:59.409Z,1.13
2022-10-12T16:05:01.931Z,1.52
2022-10-12T16:08:06.862Z,1.77
2022-10-12T16:11:12.681Z,1.48
2022-10-12T16:14:15.589Z,1.83
2022-10-12T16:17:19.364Z,1.48
2022-10-12T16:20:22.665Z,1.45
2022-10-12T16:23:29.658Z,1.65
2022-10-12T16:26:32.142Z,1.30
2022-10-12T16:29:34.605Z,1.48
2022-10-12T16:32:38.405Z,1.42
2022-10-12T16:35:41.054Z,0.98
2022-10-12T16:38:44.323Z,0.90
2022-10-12T16:41:46.787Z,1.55
2022-10-12T16:44:49.489Z,3.35
2022-10-12T16:47:54.063Z,2.28
2022-10-12T16:50:56.513Z,2.00
2022-10-12T16:53:58.935Z,1.48
2022-10-12T16:57:01.389Z,2.03
2022-10-12T17:00:04.929Z,1.65
2022-10-12T17:03:09.295Z,2.28
2022-10-12T17:06:11.960Z,5.10
2022-10-12T17:09:14.378Z,5.78
2022-10-12T17:12:17.246Z,5.70
2022-10-12T17:15:20.222Z,8.88
2022-10-12T17:18:23.990Z,4.22
2022-10-12T17:21:26.491Z,5.95
2022-10-12T17:24:31.136Z,5.35
2022-10-12T17:27:33.577Z,6.97
2022-10-12T17:30:38.338Z,4.10
2022-10-12T17:33:42.170Z,2.05
2022-10-12T17:36:44.698Z,2.55
2022-10-12T17:39:48.310Z,2.00
2022-10-12T17:42:50.737Z,2.08
2022-10-12T17:45:53.190Z,2.42
2022-10-12T17:48:59.208Z,2.10
2022-10-12T17:52:01.656Z,2.63
2022-10-12T17:55:04.444Z,2.83
2022-10-12T17:58:06.906Z,2.55
2022-10-12T18:01:11.481Z,2.08
2022-10-12T18:04:15.329Z,2.20
2022-10-12T18:07:18.116Z,2.80
2022-10-12T18:10:23.459Z,3.42
2022-10-12T18:13:29.027Z,6.22
2022-10-12T18:16:34.092Z,6.68
2022-10-12T18:19:38.002Z,6.82
2022-10-12T18:22:40.634Z,7.88
2022-10-12T18:25:44.001Z,9.88
2022-10-12T18:28:46.650Z,9.07
2022-10-12T18:31:49.233Z,6.13
2022-10-12T18:34:53.616Z,5.57
2022-10-12T18:37:56.470Z,8.63
2022-10-12T18:41:03.735Z,7.82
2022-10-12T18:44:06.213Z,9.30
2022-10-12T18:47:08.817Z,7.57
2022-10-12T18:50:12.687Z,7.28
2022-10-12T18:53:15.277Z,12.32
2022-10-12T18:56:18.267Z,12.50
2022-10-12T18:59:20.805Z,11.75
2022-10-12T19:02:23.527Z,10.90
2022-10-12T19:05:27.350Z,9.10
2022-10-12T19:08:29.925Z,8.32
2022-10-12T19:11:32.965Z,7.13
2022-10-12T19:14:35.498Z,6.25
2022-10-12T19:17:37.941Z,5.45
2022-10-12T19:20:41.728Z,5.30
2022-10-12T19:23:45.075Z,6.07
2022-10-12T19:26:48.692Z,5.75
2022-10-12T19:29:51.406Z,7.82
2022-10-12T19:32:53.917Z,8.98
2022-10-12T19:35:57.781Z,8.15
2022-10-12T19:39:02.599Z,5.60
2022-10-12T19:42:05.352Z,5.07
2022-10-12T19:45:09.023Z,6.43
2022-10-12T19:48:11.538Z,7.35
2022-10-12T19:51:15.533Z,7.68
2022-10-12T19:54:18.098Z,11.05
2022-10-12T19:57:20.605Z,9.48
2022-10-12T20:00:23.110Z,7.65
2022-10-12T20:03:25.627Z,7.07
2022-10-12T20:06:31.019Z,5.25
2022-10-12T20:09:33.579Z,4.30
2022-10-12T20:12:36.162Z,4.72
2022-10-12T20:15:38.812Z,4.75
2022-10-12T20:18:42.144Z,3.90
2022-10-12T20:21:46.010Z,4.07
2022-10-12T20:24:49.067Z,4.18
2022-10-12T20:27:51.539Z,3.45
2022-10-12T20:30:59.174Z,3.67
2022-10-12T20:34:01.674Z,3.25
2022-10-12T20:37:05.553Z,3.35
2022-10-12T20:40:09.217Z,3.13
2022-10-12T20:43:11.778Z,2.83
2022-10-12T20:46:16.130Z,2.60
2022-10-12T20:49:18.662Z,4.40
2022-10-12T20:52:22.614Z,4.43
2022-10-12T20:55:25.221Z,2.40
2022-10-12T20:58:28.409Z,2.08
2022-10-12T21:01:30.887Z,2.95
2022-10-12T21:04:38.160Z,3.03
2022-10-12T21:07:42.265Z,3.40
2022-10-12T21:10:47.212Z,3.03
2022-10-12T21:13:50.113Z,2.70
2022-10-12T21:16:52.695Z,5.32
2022-10-12T21:19:55.183Z,3.95
2022-10-12T21:22:58.969Z,3.53
2022-10-12T21:26:09.918Z,2.83
2022-10-12T21:29:12.669Z,2.55
2022-10-12T21:32:15.646Z,3.47
2022-10-12T21:35:18.294Z,3.20
2022-10-12T21:38:22.299Z,4.15
2022-10-12T21:41:26.234Z,3.50
2022-10-12T21:44:28.732Z,2.45
2022-10-12T21:47:31.230Z,2.67
2022-10-12T21:50:34.780Z,2.67
2022-10-12T21:53:40.038Z,3.15
2022-10-12T21:56:42.961Z,3.30
2022-10-12T21:59:45.497Z,3.28
2022-10-12T22:02:49.403Z,4.45
2022-10-12T22:05:52.001Z,4.05
2022-10-12T22:08:57.475Z,3.90
2022-10-12T22:11:59.939Z,4.50
2022-10-12T22:15:02.603Z,3.42
2022-10-12T22:18:05.302Z,3.10
2022-10-12T22:21:11.170Z,3.67
2022-10-12T22:24:15.331Z,4.75
2022-10-12T22:27:17.781Z,5.00
2022-10-12T22:30:20.239Z,3.85
2022-10-12T22:33:22.957Z,6.07
2022-10-12T22:36:25.896Z,2.95
2022-10-12T22:39:29.726Z,3.13
2022-10-12T22:42:32.306Z,4.50
2022-10-12T22:45:34.757Z,2.67
2022-10-12T22:48:38.125Z,2.80
2022-10-12T22:51:40.633Z,3.03
2022-10-12T22:54:44.622Z,2.75
2022-10-12T22:57:47.077Z,2.47
2022-10-12T23:00:49.553Z,3.13
2022-10-12T23:03:52.470Z,2.78
2022-10-12T23:06:54.904Z,2.50
2022-10-12T23:09:58.858Z,1.85
2022-10-12T23:13:01.261Z,2.42
2022-10-12T23:16:04.785Z,3.40
2022-10-12T23:19:07.351Z,2.30
2022-10-12T23:22:09.771Z,3.15
2022-10-12T23:25:13.595Z,3.10
2022-10-12T23:28:16.050Z,3.05
2022-10-12T23:31:20.705Z,2.92
2022-10-12T23:34:23.154Z,3.13
2022-10-12T23:37:25.874Z,3.65
2022-10-12T23:40:29.974Z,3.83
2022-10-12T23:43:33.044Z,3.83
2022-10-12T23:46:35.641Z,3.70
2022-10-12T23:49:38.246Z,2.30
2022-10-12T23:52:40.707Z,2.63
2022-10-12T23:55:44.661Z,2.92
2022-10-12T23:58:47.137Z,3.17
